Aeroporto :
LOGIN :

Iscrizione | Disclaimer

   EN    FR    IT 

 










Sommario :    VFR   VFR Marginale   IFR   IFR Intensivo   IFR Molto Intensivo
Visibilità : 
Base nubi : 
>= 8 km
>= 3000ft
5 / 8 km
1000 / 3000 ft
1500m / 5 km
500 / 1000 ft
800 / 1500m
200 / 500 ft
< 800m
< 200 ft
Simboli :   Temporali  Nebbia  Neve Forte  Precipitazioni Forti  Vento > 20 kt
SIGMETs :   Varie  Temporali  Ghiacco  Turbolenza  Onda orograficha  Ceneri Vulcaniche






- Altitudine del aeroporto : 306 ft
- Codice IATA : EMA


EGNX - Nottingham East Midlands

ULTIMO METAR :
  • 262320Z 20010KT 8000 FEW003 06/05 Q1002

METARs OBSOLETI :
  • 262250Z 19009KT 9999 FEW003 05/05 Q1002
  • 262220Z 21008KT CAVOK 05/05 Q1003
  • 262150Z 20008KT CAVOK 05/05 Q1003
  • 262120Z 20006KT CAVOK 05/05 Q1003
  • 262050Z 20004KT CAVOK 05/05 Q1003

TAF TAF EGNX
Valido dal 27 a 00 ore il 28 a 00 ore UTC


262256Z 2700/2724 18009KT 9999 SCT025
PROB30 2700/2702 4000 BR BKN004
PROB30
TEMPO 2702/2709 6000 SHRA BKN008
TEMPO 2721/2724 6000 RA BKN006
ATIS : +44 1332 852 852 (ext 3201)



MetMap, La meteo Aeronautica in un colpo d'occhio ! - Copyright ORBIFLY Dicembre 2007 - Disclaimer

ORBIFLY MET'MAP TEAM :

Programmazione e sviluppo : Alexandra Zaïnal
Concezione : Baudouin d'Aumeries
Aiuto per la programmazione : Marc-Olivier Méhu
Supporto tecnico e logistico : Manuel Goepfert
Aiuto per la traduzione : Arnaldo La Scala

Contatto : metmap@orbifly.com




FONTI E CREDITI :

   NOAA